Bookmark and Share
Track history (hours):
 

Cape Peony

Last reported at 2014-Apr-07 17:32 UTC. Time now 2014-Apr-17 09:38 UTC.
Position N 33°49' E 134°55'.
Warning: this ship's position is 9 days out of date.

Length 292 m; draft 11.4 m.

Type: Cargo ship. MMSI: 373590000.

NotesDate/timePositionNaut miles runAvg speedWind from/ knotsBaromVisibWave heightAir tempDewpointWater temp
2014-Apr-07 17:32N 33°49' E 134°55'1010.2
2014-Apr-07 16:33N 33°59' E 134°56'1110.5
2014-Apr-07 15:33N 34°10' E 134°57'1111.0
2014-Apr-07 14:33N 34°21' E 134°58'1313.0
2014-Apr-07 13:34N 34°32' E 135°07'9 8.8
2014-Apr-07 12:33N 34°37' E 134°58'1311.4
2014-Apr-07 11:27N 34°34' E 134°43'1010.7
2014-Apr-07 10:32N 34°42' E 134°50'  
2014-Apr-02 15:29N 34°43' E 134°50'4 4.3
2014-Apr-02 14:33N 34°40' E 134°47'0 0.0
2014-Apr-02 13:28N 34°40' E 134°47'0 0.1
2014-Apr-02 12:29N 34°40' E 134°47'0 0.0
2014-Apr-02 11:33N 34°40' E 134°47'0 0.1
2014-Apr-02 10:32N 34°40' E 134°47'0 0.2
2014-Apr-02 09:04N 34°40' E 134°47'0 0.0
2014-Apr-02 07:32N 34°40' E 134°47'6 5.7
2014-Apr-02 06:31N 34°35' E 134°43'8 8.7
2014-Apr-02 05:33N 34°35' E 134°53'9 8.6
2014-Apr-02 04:33N 34°36' E 135°03'7 6.8
2014-Apr-02 03:33N 34°30' E 135°05'1212.0
2014-Apr-02 02:33N 34°18' E 134°60'1010.4
2014-Apr-02 01:33N 34°08' E 135°00'8 8.4
2014-Apr-02 00:33N 33°60' E 134°60'9 8.6
2014-Apr-01 23:33N 33°51' E 134°60'  

Dump ship's entire track history

sailing weather and tide predictions

Cape Peony — 3FDX6 — position and weather